Time;durP1;ratioP1;P1;durP2;ratioP2;P2;SDS_P1;SDS_P2;PMS_P1;PMS_P2;Temp;Humidity;BMP_temperature;BMP_pressure;BME280_temperature;BME280_humidity;BME280_pressure;Samples;Min_cycle;Max_cycle;Signal;HPM_P1;HPM_P2
2023/08/01 00:01:12;;;;;;;4.70;1.20;;;;;;;18.01;100.00;100346.79;104780;1257;73755;-49
2023/08/01 00:03:40;;;;;;;6.10;1.50;;;;;;;18.01;100.00;100348.22;104923;1254;66003;-51
2023/08/01 00:06:08;;;;;;;7.40;1.20;;;;;;;18.02;100.00;100347.63;104872;1258;72467;-52
2023/08/01 00:08:35;;;;;;;2.30;0.90;;;;;;;18.02;100.00;100355.05;104876;1258;61766;-52
2023/08/01 00:11:03;;;;;;;6.10;1.40;;;;;;;18.03;100.00;100354.10;104583;1258;60436;-51
2023/08/01 00:13:30;;;;;;;2.30;1.90;;;;;;;18.04;100.00;100359.27;104893;1253;74695;-51
2023/08/01 00:15:58;;;;;;;3.90;1.30;;;;;;;18.03;100.00;100358.80;104807;1258;67290;-51
2023/08/01 00:18:34;;;;;;;1.30;1.20;;;;;;;17.99;100.00;100362.17;104625;1259;71854;-51
2023/08/01 00:21:02;;;;;;;2.20;1.40;;;;;;;17.92;100.00;100354.98;106190;1253;60476;-51
2023/08/01 00:23:29;;;;;;;3.20;1.20;;;;;;;17.86;100.00;100348.92;104731;1259;60560;-51
2023/08/01 00:25:57;;;;;;;5.50;1.60;;;;;;;17.83;100.00;100341.88;104849;1258;73837;-51
2023/08/01 00:28:24;;;;;;;3.30;1.00;;;;;;;17.81;100.00;100344.53;104874;1256;67445;-51
2023/08/01 00:31:04;;;;;;;5.70;1.00;;;;;;;17.81;100.00;100341.98;104898;1256;71378;-51
2023/08/01 00:33:32;;;;;;;1.80;1.40;;;;;;;17.82;100.00;100351.20;108986;1257;60420;-52
2023/08/01 00:36:00;;;;;;;1.80;1.30;;;;;;;17.83;100.00;100345.34;109065;1254;58743;-52
2023/08/01 00:38:27;;;;;;;1.30;0.90;;;;;;;17.82;100.00;100341.73;108943;1254;74349;-52
2023/08/01 00:40:54;;;;;;;3.10;1.00;;;;;;;17.83;100.00;100348.94;109043;1255;67230;-52
2023/08/01 00:43:22;;;;;;;3.40;1.40;;;;;;;17.83;100.00;100351.27;105421;1259;72330;-52
2023/08/01 00:45:49;;;;;;;7.70;1.20;;;;;;;17.83;100.00;100347.16;104798;1258;61100;-50
2023/08/01 00:48:18;;;;;;;3.20;1.20;;;;;;;17.82;100.00;100350.11;104689;1261;60792;-52
2023/08/01 00:50:46;;;;;;;3.90;1.00;;;;;;;17.81;100.00;100350.20;108820;1254;74239;-52
2023/08/01 00:53:13;;;;;;;2.20;0.80;;;;;;;17.80;100.00;100352.78;105358;1258;67558;-52
2023/08/01 00:55:41;;;;;;;1.60;1.00;;;;;;;17.80;100.00;100353.71;104731;1256;72671;-51
2023/08/01 00:58:08;;;;;;;1.60;1.00;;;;;;;17.78;100.00;100346.87;104454;1262;61703;-51
2023/08/01 01:00:36;;;;;;;3.00;1.20;;;;;;;17.78;100.00;100341.79;104815;1258;60460;-52
2023/08/01 01:03:04;;;;;;;2.50;1.20;;;;;;;17.79;100.00;100345.41;104778;1262;73764;-50
2023/08/01 01:05:33;;;;;;;4.50;1.10;;;;;;;17.75;100.00;100348.19;105235;1260;64699;-51
2023/08/01 01:08:00;;;;;;;3.60;1.20;;;;;;;17.72;100.00;100350.91;105323;1259;74680;-51
2023/08/01 01:10:28;;;;;;;3.50;1.10;;;;;;;17.72;100.00;100351.32;105220;1262;60544;-51
2023/08/01 01:12:55;;;;;;;5.50;1.60;;;;;;;17.70;100.00;100345.98;104555;1257;60741;-51
2023/08/01 01:15:22;;;;;;;5.20;1.30;;;;;;;17.69;100.00;100347.39;104748;1258;74218;-51
2023/08/01 01:17:50;;;;;;;1.80;0.90;;;;;;;17.67;100.00;100348.42;104783;1260;66974;-51
2023/08/01 01:20:23;;;;;;;5.70;1.20;;;;;;;17.63;100.00;100349.92;105124;1254;72868;-52
2023/08/01 01:22:52;;;;;;;1.80;1.70;;;;;;;17.62;100.00;100358.35;104880;1254;61714;-52
2023/08/01 01:25:20;;;;;;;2.90;1.50;;;;;;;17.60;100.00;100360.61;105090;1255;60484;-51
2023/08/01 01:27:49;;;;;;;3.70;1.60;;;;;;;17.59;100.00;100356.89;105370;1259;72585;-51
2023/08/01 01:30:16;;;;;;;4.20;2.70;;;;;;;17.58;100.00;100354.43;104668;1260;66770;-52
2023/08/01 01:32:44;;;;;;;5.90;1.60;;;;;;;17.56;100.00;100359.13;104830;1257;73355;-52
2023/08/01 01:35:11;;;;;;;2.60;1.90;;;;;;;17.54;100.00;100357.41;104738;1260;60622;-52
2023/08/01 01:37:39;;;;;;;4.00;1.20;;;;;;;17.53;100.00;100359.52;104815;1259;60486;-51
2023/08/01 01:40:07;;;;;;;7.30;1.50;;;;;;;17.50;100.00;100358.40;104890;1259;73762;-51
2023/08/01 01:42:34;;;;;;;2.90;1.40;;;;;;;17.46;100.00;100357.58;105300;1260;66689;-50
2023/08/01 01:45:02;;;;;;;1.50;1.30;;;;;;;17.44;100.00;100351.02;105027;1254;71432;-51
2023/08/01 01:47:29;;;;;;;3.10;1.70;;;;;;;17.42;100.00;100352.80;104692;1257;62512;-51
2023/08/01 01:49:57;;;;;;;1.70;1.50;;;;;;;17.38;100.00;100354.46;108014;1254;60523;-51
2023/08/01 01:55:20;;;;;;;3.30;1.60;;;;;;;17.35;100.00;100325.33;101842;1292;600448;-50
2023/08/01 01:57:48;;;;;;;5.10;1.70;;;;;;;17.31;100.00;100431.54;104125;1271;60047;-51
2023/08/01 02:00:16;;;;;;;4.50;1.40;;;;;;;17.28;100.00;100409.04;103826;1273;59203;-50
2023/08/01 02:02:43;;;;;;;3.30;1.60;;;;;;;17.26;100.00;100397.92;103942;1267;70982;-52
2023/08/01 02:05:10;;;;;;;3.60;1.80;;;;;;;17.25;100.00;100392.95;103990;1267;66773;-50
2023/08/01 02:07:37;;;;;;;2.60;1.70;;;;;;;17.21;100.00;100387.20;104182;1270;71482;-51
2023/08/01 02:10:05;;;;;;;4.90;1.60;;;;;;;17.19;100.00;100382.06;103640;1267;205322;-50
2023/08/01 02:12:35;;;;;;;3.50;1.40;;;;;;;17.18;100.00;100375.29;105931;1272;60068;-51
2023/08/01 02:15:03;;;;;;;2.20;1.40;;;;;;;17.17;100.00;100378.96;104304;1257;72280;-51
2023/08/01 02:17:30;;;;;;;3.70;1.60;;;;;;;17.17;100.00;100382.61;104312;1258;64522;-51
2023/08/01 02:19:58;;;;;;;2.70;2.00;;;;;;;17.16;100.00;100379.58;106508;1257;73165;-51
2023/08/01 02:22:26;;;;;;;2.60;1.80;;;;;;;17.12;100.00;100375.33;104655;1264;62143;-51
2023/08/01 02:24:53;;;;;;;4.20;1.70;;;;;;;17.05;100.00;100372.47;104158;1257;60009;-50
2023/08/01 02:27:21;;;;;;;1.60;1.50;;;;;;;17.03;100.00;100372.58;104556;1264;75090;-50
2023/08/01 02:29:50;;;;;;;3.20;1.60;;;;;;;17.03;100.00;100370.58;104553;1263;70891;-50
2023/08/01 02:32:17;;;;;;;5.00;2.00;;;;;;;17.03;100.00;100372.95;104502;1262;71263;-52
2023/08/01 02:34:45;;;;;;;2.60;1.60;;;;;;;16.97;100.00;100373.36;104397;1261;62610;-50
2023/08/01 02:37:12;;;;;;;1.80;1.40;;;;;;;16.93;100.00;100373.58;104508;1258;59611;-50
2023/08/01 02:39:39;;;;;;;4.00;1.40;;;;;;;16.93;100.00;100376.69;104455;1257;71885;-49
2023/08/01 02:42:08;;;;;;;8.10;2.00;;;;;;;16.93;100.00;100378.36;104796;1257;68413;-50
2023/08/01 02:44:35;;;;;;;8.10;1.40;;;;;;;16.91;100.00;100379.37;104603;1256;72177;-51
2023/08/01 02:47:02;;;;;;;2.70;1.40;;;;;;;16.89;100.00;100378.46;104621;1257;61687;-50
2023/08/01 02:49:30;;;;;;;7.20;1.30;;;;;;;16.88;100.00;100376.49;108599;1257;58770;-51
2023/08/01 02:51:58;;;;;;;3.00;1.20;;;;;;;16.88;100.00;100379.59;107437;1260;73017;-50
2023/08/01 02:54:26;;;;;;;4.10;1.40;;;;;;;16.87;100.00;100378.53;105248;1258;68203;-50
2023/08/01 02:56:53;;;;;;;5.60;1.20;;;;;;;16.87;100.00;100376.77;104530;1260;71408;-50
2023/08/01 02:59:20;;;;;;;4.70;1.20;;;;;;;16.86;100.00;100377.16;104580;1258;61843;-51
2023/08/01 03:01:48;;;;;;;4.50;2.10;;;;;;;16.84;100.00;100378.01;104749;1260;59711;-51
2023/08/01 03:04:16;;;;;;;5.70;1.10;;;;;;;16.83;100.00;100377.20;108815;1256;73570;-52
2023/08/01 03:06:44;;;;;;;7.80;2.00;;;;;;;16.83;100.00;100372.48;108782;1260;66754;-52
2023/08/01 03:09:11;;;;;;;6.20;1.00;;;;;;;16.84;100.00;100374.02;108758;1257;73096;-52
2023/08/01 03:11:38;;;;;;;4.40;1.10;;;;;;;16.85;100.00;100374.13;108706;1261;61676;-52
2023/08/01 03:14:06;;;;;;;1.70;1.10;;;;;;;16.87;100.00;100374.95;108764;1257;58780;-52
2023/08/01 03:16:33;;;;;;;3.50;1.10;;;;;;;16.88;100.00;100376.84;108747;1256;73019;-52
2023/08/01 03:19:04;;;;;;;2.20;1.20;;;;;;;16.90;100.00;100379.27;108707;1257;67461;-52
2023/08/01 03:21:32;;;;;;;2.00;1.30;;;;;;;16.92;100.00;100383.33;108687;1259;75998;-52
2023/08/01 03:24:00;;;;;;;3.50;1.30;;;;;;;16.93;100.00;100388.48;108728;1259;62196;-52
2023/08/01 03:26:28;;;;;;;4.90;1.70;;;;;;;16.94;100.00;100390.95;108662;1257;60075;-51
2023/08/01 03:28:56;;;;;;;6.60;2.30;;;;;;;16.95;100.00;100390.38;108573;1259;71854;-52
2023/08/01 03:31:23;;;;;;;4.60;1.50;;;;;;;16.95;100.00;100391.61;108714;1257;66723;-52
2023/08/01 03:33:50;;;;;;;3.90;1.30;;;;;;;16.95;100.00;100390.90;108760;1260;72820;-52
2023/08/01 03:36:18;;;;;;;4.80;1.50;;;;;;;16.95;100.00;100393.41;108821;1257;60388;-52
2023/08/01 03:38:45;;;;;;;2.10;1.50;;;;;;;16.97;100.00;100400.40;108884;1257;59816;-51
2023/08/01 03:41:12;;;;;;;3.70;1.40;;;;;;;16.98;100.00;100403.54;108718;1257;71834;-51
2023/08/01 03:43:40;;;;;;;2.20;1.20;;;;;;;17.02;100.00;100406.21;108816;1257;65563;-53
2023/08/01 03:46:07;;;;;;;3.20;1.50;;;;;;;17.05;100.00;100411.87;108516;1257;72719;-52
2023/08/01 03:48:35;;;;;;;1.50;1.40;;;;;;;17.07;100.00;100420.39;106185;1257;60652;-51
2023/08/01 03:51:03;;;;;;;2.10;1.50;;;;;;;17.11;100.00;100421.76;104337;1257;60926;-50
2023/08/01 03:53:31;;;;;;;7.10;1.00;;;;;;;17.11;100.00;100426.50;105064;1264;75009;-51
2023/08/01 03:55:59;;;;;;;4.40;1.20;;;;;;;17.09;100.00;100427.92;104712;1262;66447;-50
2023/08/01 03:58:26;;;;;;;2.00;1.10;;;;;;;17.05;100.00;100431.62;104636;1259;72945;-50
2023/08/01 04:00:54;;;;;;;8.80;0.90;;;;;;;16.99;100.00;100426.72;104800;1263;60413;-51
2023/08/01 04:03:21;;;;;;;11.00;0.90;;;;;;;16.95;100.00;100430.94;105250;1262;60303;-51
2023/08/01 04:05:49;;;;;;;2.70;1.00;;;;;;;16.91;100.00;100429.58;104528;1256;71753;-52
2023/08/01 04:08:16;;;;;;;5.80;1.30;;;;;;;16.89;100.00;100426.80;104730;1256;65096;-52
2023/08/01 04:10:43;;;;;;;3.50;1.40;;;;;;;16.91;100.00;100429.95;104719;1257;71436;-50
2023/08/01 04:13:11;;;;;;;6.00;0.90;;;;;;;16.94;100.00;100438.46;104672;1262;60421;-49
2023/08/01 04:15:38;;;;;;;3.10;0.90;;;;;;;16.97;100.00;100451.29;104693;1257;59740;-49
2023/08/01 04:18:05;;;;;;;5.50;1.00;;;;;;;17.03;100.00;100454.59;106073;1256;73057;-51
2023/08/01 04:20:33;;;;;;;10.50;1.00;;;;;;;17.09;100.00;100460.73;104782;1261;67578;-51
2023/08/01 04:23:00;;;;;;;7.40;0.80;;;;;;;17.16;100.00;100465.33;104590;1257;72785;-50
2023/08/01 04:25:28;;;;;;;1.40;1.30;;;;;;;17.24;100.00;100478.61;104621;1257;60465;-50
2023/08/01 04:27:55;;;;;;;3.70;1.00;;;;;;;17.32;100.00;100487.33;104756;1257;61138;-51
2023/08/01 04:30:23;;;;;;;4.70;1.90;;;;;;;17.42;100.00;100497.00;104839;1257;73128;-51
2023/08/01 04:32:50;;;;;;;6.50;3.10;;;;;;;17.52;100.00;100505.81;104682;1261;67857;-50
2023/08/01 04:35:17;;;;;;;5.10;3.80;;;;;;;17.62;100.00;100513.33;104742;1257;72944;-51
2023/08/01 04:37:45;;;;;;;3.80;1.50;;;;;;;17.72;100.00;100520.88;104565;1256;62127;-50
2023/08/01 04:40:12;;;;;;;4.40;1.60;;;;;;;17.81;100.00;100533.49;104467;1256;59994;-51
2023/08/01 04:42:39;;;;;;;2.40;2.00;;;;;;;17.89;100.00;100552.77;104793;1260;73619;-51
2023/08/01 04:45:07;;;;;;;3.00;2.40;;;;;;;17.96;100.00;100566.30;104726;1257;66743;-50
2023/08/01 04:47:35;;;;;;;3.00;2.80;;;;;;;18.04;100.00;100584.43;104732;1257;71525;-48
2023/08/01 04:50:03;;;;;;;8.00;4.70;;;;;;;18.13;100.00;100601.29;104838;1255;61743;-50
2023/08/01 04:52:30;;;;;;;4.00;3.70;;;;;;;18.22;100.00;100617.94;104764;1257;61563;-51
2023/08/01 04:54:57;;;;;;;2.80;2.60;;;;;;;18.31;100.00;100631.88;104596;1257;73052;-49
2023/08/01 04:57:25;;;;;;;2.80;2.70;;;;;;;18.40;100.00;100649.48;104590;1256;66601;-50
2023/08/01 04:59:52;;;;;;;2.90;2.70;;;;;;;18.47;100.00;100661.50;104725;1259;72746;-50
2023/08/01 05:02:20;;;;;;;3.00;2.10;;;;;;;18.57;100.00;100680.34;104643;1261;60501;-49
2023/08/01 05:04:47;;;;;;;2.50;2.40;;;;;;;18.66;100.00;100694.31;104592;1261;59697;-50
2023/08/01 05:07:14;;;;;;;3.10;2.90;;;;;;;18.74;100.00;100707.35;104655;1256;71346;-50
2023/08/01 05:09:42;;;;;;;6.00;2.40;;;;;;;18.83;100.00;100721.84;104672;1257;65735;-51
2023/08/01 05:12:09;;;;;;;2.00;1.70;;;;;;;18.92;100.00;100738.87;104647;1260;72698;-51
2023/08/01 05:14:37;;;;;;;1.70;1.50;;;;;;;19.02;100.00;100757.70;104711;1258;61716;-51
2023/08/01 05:17:04;;;;;;;1.60;1.00;;;;;;;19.11;100.00;100778.52;104611;1256;59960;-51
2023/08/01 05:19:32;;;;;;;1.10;1.00;;;;;;;19.21;100.00;100798.56;106682;1256;72981;-51
2023/08/01 05:21:59;;;;;;;2.10;1.00;;;;;;;19.33;100.00;100816.38;104749;1263;67412;-50
2023/08/01 05:24:27;;;;;;;0.70;0.70;;;;;;;19.44;100.00;100839.44;104701;1262;72132;-49
2023/08/01 05:26:54;;;;;;;0.70;0.70;;;;;;;19.55;100.00;100857.28;104677;1256;61258;-51
2023/08/01 05:29:22;;;;;;;0.70;0.70;;;;;;;19.66;100.00;100875.09;104628;1257;60468;-50
2023/08/01 05:31:49;;;;;;;1.00;0.90;;;;;;;19.76;100.00;100893.89;104600;1256;74216;-51
2023/08/01 05:34:16;;;;;;;0.70;0.70;;;;;;;19.85;100.00;100913.88;104767;1260;65542;-52
2023/08/01 05:36:43;;;;;;;2.60;0.70;;;;;;;19.94;100.00;100936.92;104570;1257;71442;-51
2023/08/01 05:39:11;;;;;;;0.70;0.70;;;;;;;20.04;100.00;100953.89;104679;1257;60394;-51
2023/08/01 05:41:38;;;;;;;0.60;0.60;;;;;;;20.15;100.00;100976.11;104695;1257;60716;-50
2023/08/01 05:44:06;;;;;;;6.50;0.70;;;;;;;20.24;100.00;101003.33;104586;1261;73147;-52
2023/08/01 05:46:33;;;;;;;0.70;0.60;;;;;;;20.34;100.00;101026.36;104658;1258;66709;-52
2023/08/01 05:49:01;;;;;;;1.60;0.50;;;;;;;20.45;100.00;101051.21;104677;1262;72651;-52
2023/08/01 05:51:28;;;;;;;1.30;0.70;;;;;;;20.54;100.00;101072.97;104682;1258;61636;-52
2023/08/01 05:53:55;;;;;;;0.60;0.60;;;;;;;20.65;100.00;101095.02;104608;1256;60468;-52
2023/08/01 05:56:23;;;;;;;0.60;0.60;;;;;;;20.75;100.00;101120.20;104487;1256;72588;-52
2023/08/01 05:58:50;;;;;;;1.60;0.90;;;;;;;20.86;100.00;101146.61;104521;1256;66727;-53
2023/08/01 06:01:19;;;;;;;1.60;0.40;;;;;;;20.97;100.00;101168.84;104392;1256;75641;-53
2023/08/01 06:03:47;;;;;;;0.70;0.40;;;;;;;21.07;100.00;101201.86;104541;1257;60524;-52
2023/08/01 06:06:14;;;;;;;0.60;0.50;;;;;;;21.16;100.00;101226.63;104450;1257;60661;-53
2023/08/01 06:08:41;;;;;;;0.70;0.70;;;;;;;21.28;100.00;101256.92;104727;1261;75996;-52
2023/08/01 06:11:09;;;;;;;0.80;0.60;;;;;;;21.37;100.00;101282.92;104583;1261;65638;-52
2023/08/01 06:13:36;;;;;;;0.90;0.60;;;;;;;21.45;100.00;101309.56;104461;1256;72698;-51
2023/08/01 06:16:03;;;;;;;0.70;0.70;;;;;;;21.56;100.00;101343.00;104459;1256;61647;-52
2023/08/01 06:18:31;;;;;;;1.00;0.70;;;;;;;21.67;100.00;101395.00;108675;1256;60471;-51
2023/08/01 06:20:59;;;;;;;0.50;0.50;;;;;;;21.76;100.00;101429.27;108751;1257;73849;-51
2023/08/01 06:23:26;;;;;;;1.60;0.50;;;;;;;21.86;100.00;101470.20;108665;1256;68422;-51
2023/08/01 06:25:53;;;;;;;2.10;0.90;;;;;;;21.95;100.00;101446.45;108790;1256;72619;-51
2023/08/01 06:28:21;;;;;;;1.10;0.60;;;;;;;22.04;100.00;101533.39;108777;1256;62198;-51
2023/08/01 06:30:48;;;;;;;1.30;0.70;;;;;;;22.14;100.00;101569.05;108795;1257;59131;-52
2023/08/01 06:33:16;;;;;;;1.40;0.80;;;;;;;22.23;100.00;101604.82;108789;1256;73445;-51
2023/08/01 06:35:43;;;;;;;1.30;0.60;;;;;;;22.31;100.00;101643.85;108802;1256;65758;-52
2023/08/01 06:38:11;;;;;;;1.80;0.70;;;;;;;22.39;100.00;101684.98;108736;1256;71153;-52
2023/08/01 06:40:38;;;;;;;2.20;0.70;;;;;;;22.47;100.00;101721.54;107277;1257;60539;-52
2023/08/01 06:43:05;;;;;;;0.80;0.60;;;;;;;22.55;100.00;101754.84;104358;1260;60618;-52
2023/08/01 06:45:32;;;;;;;0.50;0.50;;;;;;;22.63;100.00;101785.06;104527;1256;74774;-51
2023/08/01 06:48:00;;;;;;;0.60;0.60;;;;;;;22.71;100.00;101822.40;104432;1257;68950;-52
2023/08/01 06:50:28;;;;;;;0.60;0.60;;;;;;;22.79;100.00;101854.83;104822;1257;72874;-52
2023/08/01 06:52:55;;;;;;;3.00;0.70;;;;;;;22.85;100.00;101885.39;104661;1258;60534;-52
2023/08/01 06:55:22;;;;;;;2.40;0.50;;;;;;;22.89;100.00;101916.59;104383;1257;60486;-52
2023/08/01 06:57:50;;;;;;;0.70;0.50;;;;;;;22.92;100.00;101940.18;104252;1261;74063;-51
2023/08/01 07:00:18;;;;;;;0.30;0.30;;;;;;;22.95;100.00;101976.27;104558;1260;66802;-52
2023/08/01 07:02:48;;;;;;;0.40;0.40;;;;;;;22.97;100.00;102000.80;104576;1257;72907;-54
2023/08/01 07:05:16;;;;;;;0.50;0.40;;;;;;;23.01;100.00;102037.05;104507;1256;62169;-52
2023/08/01 07:07:44;;;;;;;0.30;0.30;;;;;;;23.04;100.00;102063.58;105227;1256;61004;-53
2023/08/01 07:10:12;;;;;;;0.70;0.40;;;;;;;23.08;100.00;102080.88;104464;1260;73851;-53
2023/08/01 07:12:39;;;;;;;3.60;0.40;;;;;;;23.13;100.00;102096.86;104400;1258;66036;-52
2023/08/01 07:15:07;;;;;;;3.20;0.30;;;;;;;23.20;100.00;102117.52;104510;1259;70886;-52
2023/08/01 07:17:35;;;;;;;0.60;0.40;;;;;;;23.25;100.00;102149.54;105700;1256;61647;-51
2023/08/01 07:20:02;;;;;;;2.00;0.40;;;;;;;23.30;100.00;102169.22;104777;1256;60342;-51
2023/08/01 07:22:30;;;;;;;4.60;0.40;;;;;;;23.34;100.00;102187.48;104885;1260;74375;-52
2023/08/01 07:24:57;;;;;;;0.40;0.40;;;;;;;23.37;100.00;102210.00;104697;1257;65662;-53
2023/08/01 07:27:24;;;;;;;0.70;0.40;;;;;;;23.39;100.00;102229.66;104606;1259;72666;-51
2023/08/01 07:29:52;;;;;;;1.30;0.40;;;;;;;23.39;100.00;102249.23;104625;1259;63834;-52
2023/08/01 07:32:19;;;;;;;0.40;0.40;;;;;;;23.42;100.00;102266.67;104891;1256;60495;-52
2023/08/01 07:34:46;;;;;;;0.40;0.40;;;;;;;23.44;100.00;102278.84;104768;1259;73795;-52
2023/08/01 07:37:14;;;;;;;1.20;0.40;;;;;;;23.48;100.00;102299.69;104615;1261;67264;-51
2023/08/01 07:39:41;;;;;;;0.30;0.30;;;;;;;23.53;100.00;102327.61;104840;1262;71787;-51
2023/08/01 07:42:08;;;;;;;0.60;0.40;;;;;;;23.57;100.00;102343.08;104617;1258;61779;-51
2023/08/01 07:44:36;;;;;;;0.40;0.40;;;;;;;23.64;100.00;102369.80;104669;1256;60600;-52
2023/08/01 07:47:04;;;;;;;0.40;0.40;;;;;;;23.73;100.00;102393.98;104675;1258;74245;-52
2023/08/01 07:49:31;;;;;;;0.40;0.40;;;;;;;23.82;100.00;102422.22;108537;1256;67230;-53
2023/08/01 07:51:58;;;;;;;0.60;0.50;;;;;;;23.90;100.00;102449.02;106179;1256;72802;-53
2023/08/01 07:54:26;;;;;;;0.40;0.40;;;;;;;23.98;100.00;102468.70;104351;1258;60506;-51
2023/08/01 07:56:53;;;;;;;0.40;0.40;;;;;;;24.05;100.00;102492.30;104510;1256;60560;-52
2023/08/01 07:59:21;;;;;;;2.00;0.60;;;;;;;24.13;100.00;102520.60;104803;1260;73775;-53
2023/08/01 08:01:48;;;;;;;1.10;0.50;;;;;;;24.22;100.00;102544.65;104602;1256;65715;-53
2023/08/01 08:04:15;;;;;;;0.40;0.40;;;;;;;24.33;100.00;102569.31;104279;1264;75083;-53
2023/08/01 08:06:43;;;;;;;0.30;0.30;;;;;;;24.41;100.00;102602.38;104558;1259;61659;-53
2023/08/01 08:09:10;;;;;;;0.70;0.40;;;;;;;24.50;100.00;102632.66;104647;1256;61124;-52
2023/08/01 08:11:38;;;;;;;1.10;0.40;;;;;;;24.59;100.00;102669.79;104642;1262;74252;-53
2023/08/01 08:14:05;;;;;;;0.50;0.40;;;;;;;24.64;100.00;102696.41;104574;1256;65609;-52
2023/08/01 08:16:32;;;;;;;0.40;0.40;;;;;;;24.70;100.00;102721.02;104637;1258;72610;-53
2023/08/01 08:19:00;;;;;;;0.40;0.40;;;;;;;24.74;100.00;102745.75;104741;1261;60441;-52
2023/08/01 08:21:27;;;;;;;0.60;0.40;;;;;;;24.80;100.00;102773.87;104250;1261;60886;-53
2023/08/01 08:23:55;;;;;;;0.40;0.40;;;;;;;24.83;100.00;102792.20;104756;1256;73799;-53
2023/08/01 08:26:23;;;;;;;0.40;0.40;;;;;;;24.87;100.00;102810.13;104366;1257;66950;-52
2023/08/01 08:28:51;;;;;;;0.30;0.30;;;;;;;24.90;100.00;102828.54;104218;1260;72669;-53
2023/08/01 08:31:18;;;;;;;0.60;0.30;;;;;;;24.94;100.00;102847.64;104587;1260;60560;-54
2023/08/01 08:33:45;;;;;;;0.40;0.30;;;;;;;24.99;100.00;102868.27;104528;1262;59271;-53
2023/08/01 08:36:13;;;;;;;0.30;0.30;;;;;;;25.05;100.00;102888.13;104488;1256;73784;-53
2023/08/01 08:38:40;;;;;;;0.60;0.30;;;;;;;25.05;100.00;102901.31;104570;1256;65809;-53
2023/08/01 08:41:14;;;;;;;0.30;0.30;;;;;;;25.05;100.00;102911.98;104166;1256;74900;-52
2023/08/01 08:43:41;;;;;;;0.30;0.30;;;;;;;25.05;100.00;102940.29;104630;1257;60573;-51
2023/08/01 08:46:09;;;;;;;0.30;0.30;;;;;;;25.07;100.00;102938.88;104377;1261;60543;-52
2023/08/01 08:48:37;;;;;;;0.30;0.30;;;;;;;25.10;100.00;102945.66;104464;1256;73964;-52
2023/08/01 08:51:04;;;;;;;0.20;0.20;;;;;;;25.12;100.00;102957.13;104652;1256;66059;-53
2023/08/01 08:53:32;;;;;;;0.20;0.20;;;;;;;25.15;100.00;102970.21;104075;1257;73171;-52
2023/08/01 08:56:00;;;;;;;0.30;0.30;;;;;;;25.13;100.00;102976.55;108582;1256;60168;-53
2023/08/01 08:58:31;;;;;;;0.60;0.60;;;;;;;25.11;100.00;102977.95;104684;1260;60592;-53
2023/08/01 09:01:00;;;;;;;0.20;0.20;;;;;;;25.11;100.00;102982.39;104638;1258;72587;-52
2023/08/01 09:03:28;;;;;;;0.20;0.20;;;;;;;25.14;100.00;102983.52;107739;1256;67060;-52
2023/08/01 09:06:11;;;;;;;0.30;0.30;;;;;;;25.18;100.00;102988.56;104383;1257;72650;-51
2023/08/01 09:08:39;;;;;;;1.70;0.20;;;;;;;25.24;100.00;103030.64;108733;1256;62874;-53
2023/08/01 09:11:06;;;;;;;1.50;0.20;;;;;;;25.30;100.00;103017.27;108848;1256;59971;-53
2023/08/01 09:13:35;;;;;;;0.20;0.20;;;;;;;25.34;100.00;103020.00;108802;1256;73846;-53
2023/08/01 09:16:02;;;;;;;0.30;0.30;;;;;;;25.40;100.00;103034.33;108806;1256;66207;-53
2023/08/01 09:18:30;;;;;;;0.20;0.20;;;;;;;25.44;100.00;103042.19;108823;1258;73685;-52
2023/08/01 09:21:02;;;;;;;0.20;0.20;;;;;;;25.46;100.00;103045.00;108800;1257;58884;-53
2023/08/01 09:23:30;;;;;;;1.00;0.20;;;;;;;25.46;100.00;103063.17;108748;1256;59957;-52
2023/08/01 09:25:57;;;;;;;0.30;0.30;;;;;;;25.44;100.00;103053.92;108812;1258;72786;-53
2023/08/01 09:28:26;;;;;;;0.20;0.20;;;;;;;25.37;100.00;103040.58;108748;1256;67226;-52
2023/08/01 09:30:55;;;;;;;0.80;0.20;;;;;;;25.29;100.00;103029.82;107116;1256;72656;-52
2023/08/01 09:33:23;;;;;;;1.50;0.30;;;;;;;25.29;100.00;103022.66;108569;1258;60540;-53
2023/08/01 09:35:50;;;;;;;0.20;0.20;;;;;;;25.33;100.00;103014.56;108840;1257;58924;-54
2023/08/01 09:38:18;;;;;;;0.20;0.20;;;;;;;25.36;100.00;103015.63;104714;1256;72666;-52
2023/08/01 09:40:45;;;;;;;0.20;0.20;;;;;;;25.38;100.00;103014.97;104520;1257;67342;-52
2023/08/01 09:43:13;;;;;;;0.20;0.20;;;;;;;25.37;100.00;103011.00;104740;1258;71501;-52
2023/08/01 09:45:53;;;;;;;0.30;0.30;;;;;;;25.36;100.00;102997.24;104541;1259;60492;-52
2023/08/01 09:48:28;;;;;;;0.20;0.20;;;;;;;25.39;100.00;103027.75;104546;1258;60557;-53
2023/08/01 09:51:11;;;;;;;0.90;0.30;;;;;;;25.45;100.00;103022.05;106345;1258;73005;-53
2023/08/01 09:53:48;;;;;;;0.20;0.20;;;;;;;25.53;100.00;103051.02;104764;1256;66348;-53
2023/08/01 09:56:22;;;;;;;0.30;0.30;;;;;;;25.59;100.00;103047.19;105067;1256;72817;-53
2023/08/01 09:58:51;;;;;;;0.20;0.20;;;;;;;25.63;100.00;103045.65;104720;1259;60541;-54
2023/08/01 10:01:19;;;;;;;0.20;0.20;;;;;;;25.69;100.00;103032.29;104635;1260;60489;-54
2023/08/01 10:03:48;;;;;;;0.30;0.30;;;;;;;25.70;100.00;103029.80;104690;1256;73148;-51
2023/08/01 10:06:20;;;;;;;1.60;0.20;;;;;;;25.69;100.00;103031.67;105328;1256;68280;-52
2023/08/01 10:08:49;;;;;;;0.30;0.30;;;;;;;25.71;100.00;103031.40;104401;1262;71551;-52
2023/08/01 10:11:20;;;;;;;0.20;0.20;;;;;;;25.75;100.00;103021.44;104826;1259;60508;-53
2023/08/01 10:13:48;;;;;;;0.30;0.30;;;;;;;25.79;100.00;103031.83;104885;1258;61050;-56
2023/08/01 10:16:16;;;;;;;0.30;0.20;;;;;;;25.84;100.00;103024.74;104587;1262;73080;-51
2023/08/01 10:18:43;;;;;;;1.70;0.30;;;;;;;25.89;100.00;103020.36;108682;1256;65728;-54
2023/08/01 10:21:15;;;;;;;0.30;0.30;;;;;;;25.94;100.00;103027.19;106295;1257;73101;-53
2023/08/01 10:23:43;;;;;;;0.20;0.20;;;;;;;26.00;100.00;103037.70;104670;1259;60442;-52
2023/08/01 10:26:11;;;;;;;0.30;0.30;;;;;;;26.04;100.00;103029.52;105426;1256;60426;-52
2023/08/01 10:28:41;;;;;;;0.30;0.20;;;;;;;26.03;100.00;103031.80;108747;1257;74694;-53
2023/08/01 10:31:09;;;;;;;0.30;0.30;;;;;;;26.04;100.00;103036.86;106558;1256;67174;-53
2023/08/01 10:33:38;;;;;;;0.40;0.30;;;;;;;26.09;100.00;103032.02;105847;1257;73176;-53
2023/08/01 10:36:19;;;;;;;0.40;0.30;;;;;;;26.13;100.00;103032.49;104591;1260;60922;-53
2023/08/01 10:38:51;;;;;;;0.50;0.30;;;;;;;26.13;100.00;103053.08;104605;1257;60573;-53
2023/08/01 10:41:37;;;;;;;0.40;0.30;;;;;;;26.15;100.00;103036.92;104477;1256;73923;-52
2023/08/01 10:44:09;;;;;;;0.20;0.20;;;;;;;26.20;100.00;103068.50;104617;1256;67432;-52
2023/08/01 10:46:50;;;;;;;0.30;0.30;;;;;;;26.20;100.00;103036.29;104898;1257;71604;-52
2023/08/01 10:49:18;;;;;;;0.30;0.30;;;;;;;26.14;100.00;103046.02;104770;1256;60534;-54
2023/08/01 10:51:46;;;;;;;0.30;0.30;;;;;;;26.11;100.00;102998.20;104721;1262;60457;-53
2023/08/01 10:54:23;;;;;;;0.40;0.30;;;;;;;26.09;100.00;102979.95;104761;1257;74031;-52
2023/08/01 10:56:52;;;;;;;0.40;0.40;;;;;;;26.06;100.00;102982.52;105185;1256;67588;-51
2023/08/01 10:59:20;;;;;;;0.30;0.30;;;;;;;26.06;100.00;102952.87;104957;1256;72694;-53
2023/08/01 11:01:49;;;;;;;0.40;0.40;;;;;;;26.07;100.00;102932.95;108620;1256;60366;-54
2023/08/01 11:04:18;;;;;;;0.30;0.30;;;;;;;26.12;100.00;102928.77;104860;1256;60320;-53
2023/08/01 11:06:46;;;;;;;1.00;0.30;;;;;;;26.20;100.00;102925.12;104769;1257;72682;-54
2023/08/01 11:09:20;;;;;;;1.10;0.30;;;;;;;26.28;100.00;102932.16;104579;1261;65689;-55
2023/08/01 11:11:49;;;;;;;3.80;0.30;;;;;;;26.36;100.00;102952.98;104763;1258;71231;-54
2023/08/01 11:14:19;;;;;;;0.40;0.40;;;;;;;26.44;100.00;102946.39;104568;1256;60633;-54
2023/08/01 11:16:46;;;;;;;0.30;0.30;;;;;;;26.51;100.00;102955.32;104729;1262;60565;-55